sensor_id;sensor_type;location;lat;lon;timestamp;P1;durP1;ratioP1;P2;durP2;ratioP2
62030;SDS011;62035;52.094;5.112;2022-08-25T00:02:02;8.60;;;6.32;;
62030;SDS011;62035;52.094;5.112;2022-08-25T00:04:33;9.55;;;7.03;;
62030;SDS011;62035;52.094;5.112;2022-08-25T00:07:02;7.43;;;6.40;;
62030;SDS011;62035;52.094;5.112;2022-08-25T00:09:32;8.88;;;5.90;;
62030;SDS011;62035;52.094;5.112;2022-08-25T00:12:02;8.55;;;5.53;;
62030;SDS011;62035;52.094;5.112;2022-08-25T00:14:31;11.32;;;6.90;;
62030;SDS011;62035;52.094;5.112;2022-08-25T00:17:02;9.73;;;6.55;;
62030;SDS011;62035;52.094;5.112;2022-08-25T00:19:32;9.73;;;6.60;;
62030;SDS011;62035;52.094;5.112;2022-08-25T00:22:03;16.20;;;7.10;;
62030;SDS011;62035;52.094;5.112;2022-08-25T00:24:34;10.77;;;5.68;;
62030;SDS011;62035;52.094;5.112;2022-08-25T00:27:02;8.20;;;5.38;;
62030;SDS011;62035;52.094;5.112;2022-08-25T00:29:30;11.35;;;7.03;;
62030;SDS011;62035;52.094;5.112;2022-08-25T00:31:59;7.32;;;5.32;;
62030;SDS011;62035;52.094;5.112;2022-08-25T00:34:28;7.43;;;5.63;;
62030;SDS011;62035;52.094;5.112;2022-08-25T00:37:01;8.60;;;5.63;;
62030;SDS011;62035;52.094;5.112;2022-08-25T00:39:33;7.40;;;5.78;;
62030;SDS011;62035;52.094;5.112;2022-08-25T00:42:02;8.52;;;5.88;;
62030;SDS011;62035;52.094;5.112;2022-08-25T00:44:30;11.07;;;6.22;;
62030;SDS011;62035;52.094;5.112;2022-08-25T00:46:59;7.35;;;5.85;;
62030;SDS011;62035;52.094;5.112;2022-08-25T00:49:30;9.55;;;5.60;;
62030;SDS011;62035;52.094;5.112;2022-08-25T00:52:06;9.68;;;6.47;;
62030;SDS011;62035;52.094;5.112;2022-08-25T00:54:41;7.07;;;5.53;;
62030;SDS011;62035;52.094;5.112;2022-08-25T00:57:16;9.52;;;6.03;;
62030;SDS011;62035;52.094;5.112;2022-08-25T00:59:48;9.57;;;6.10;;
62030;SDS011;62035;52.094;5.112;2022-08-25T01:02:17;6.80;;;6.05;;
62030;SDS011;62035;52.094;5.112;2022-08-25T01:04:45;9.82;;;6.30;;
62030;SDS011;62035;52.094;5.112;2022-08-25T01:07:13;6.93;;;5.35;;
62030;SDS011;62035;52.094;5.112;2022-08-25T01:09:45;7.18;;;5.20;;
62030;SDS011;62035;52.094;5.112;2022-08-25T01:12:15;9.05;;;6.38;;
62030;SDS011;62035;52.094;5.112;2022-08-25T01:14:43;11.35;;;5.03;;
62030;SDS011;62035;52.094;5.112;2022-08-25T01:17:12;9.75;;;6.00;;
62030;SDS011;62035;52.094;5.112;2022-08-25T01:19:41;7.40;;;5.15;;
62030;SDS011;62035;52.094;5.112;2022-08-25T01:22:10;10.85;;;6.05;;
62030;SDS011;62035;52.094;5.112;2022-08-25T01:24:39;8.13;;;6.15;;
62030;SDS011;62035;52.094;5.112;2022-08-25T01:27:13;9.00;;;5.65;;
62030;SDS011;62035;52.094;5.112;2022-08-25T01:29:41;13.20;;;6.30;;
62030;SDS011;62035;52.094;5.112;2022-08-25T01:32:10;8.23;;;5.45;;
62030;SDS011;62035;52.094;5.112;2022-08-25T01:34:40;6.35;;;4.90;;
62030;SDS011;62035;52.094;5.112;2022-08-25T01:37:13;7.22;;;5.78;;
62030;SDS011;62035;52.094;5.112;2022-08-25T01:39:43;13.85;;;5.72;;
62030;SDS011;62035;52.094;5.112;2022-08-25T01:42:12;7.40;;;5.38;;
62030;SDS011;62035;52.094;5.112;2022-08-25T01:44:53;8.88;;;5.20;;
62030;SDS011;62035;52.094;5.112;2022-08-25T01:47:22;6.32;;;5.18;;
62030;SDS011;62035;52.094;5.112;2022-08-25T01:49:50;6.85;;;5.40;;
62030;SDS011;62035;52.094;5.112;2022-08-25T01:52:20;7.70;;;5.68;;
62030;SDS011;62035;52.094;5.112;2022-08-25T01:54:54;8.60;;;5.30;;
62030;SDS011;62035;52.094;5.112;2022-08-25T01:57:22;6.07;;;4.88;;
62030;SDS011;62035;52.094;5.112;2022-08-25T01:59:49;8.85;;;5.15;;
62030;SDS011;62035;52.094;5.112;2022-08-25T02:02:17;11.13;;;6.43;;
62030;SDS011;62035;52.094;5.112;2022-08-25T02:04:44;8.27;;;5.38;;
62030;SDS011;62035;52.094;5.112;2022-08-25T02:07:12;6.93;;;5.32;;
62030;SDS011;62035;52.094;5.112;2022-08-25T02:09:41;9.73;;;6.30;;
62030;SDS011;62035;52.094;5.112;2022-08-25T02:12:09;8.05;;;5.13;;
62030;SDS011;62035;52.094;5.112;2022-08-25T02:14:36;6.93;;;5.00;;
62030;SDS011;62035;52.094;5.112;2022-08-25T02:17:05;8.73;;;4.78;;
62030;SDS011;62035;52.094;5.112;2022-08-25T02:19:32;9.50;;;5.38;;
62030;SDS011;62035;52.094;5.112;2022-08-25T02:22:00;9.32;;;4.60;;
62030;SDS011;62035;52.094;5.112;2022-08-25T02:24:28;6.57;;;4.22;;
62030;SDS011;62035;52.094;5.112;2022-08-25T02:26:57;6.88;;;4.78;;
62030;SDS011;62035;52.094;5.112;2022-08-25T02:29:25;8.02;;;4.53;;
62030;SDS011;62035;52.094;5.112;2022-08-25T02:31:52;5.15;;;3.92;;
62030;SDS011;62035;52.094;5.112;2022-08-25T02:34:20;10.32;;;4.85;;
62030;SDS011;62035;52.094;5.112;2022-08-25T02:36:48;8.90;;;4.78;;
62030;SDS011;62035;52.094;5.112;2022-08-25T02:39:16;7.88;;;3.83;;
62030;SDS011;62035;52.094;5.112;2022-08-25T02:41:43;6.18;;;4.22;;
62030;SDS011;62035;52.094;5.112;2022-08-25T02:44:12;5.75;;;3.70;;
62030;SDS011;62035;52.094;5.112;2022-08-25T02:46:40;8.05;;;4.30;;
62030;SDS011;62035;52.094;5.112;2022-08-25T02:49:08;8.25;;;4.03;;
62030;SDS011;62035;52.094;5.112;2022-08-25T02:51:35;5.30;;;4.25;;
62030;SDS011;62035;52.094;5.112;2022-08-25T02:54:04;6.80;;;4.07;;
62030;SDS011;62035;52.094;5.112;2022-08-25T02:56:32;7.22;;;4.30;;
62030;SDS011;62035;52.094;5.112;2022-08-25T02:59:00;8.38;;;4.60;;
62030;SDS011;62035;52.094;5.112;2022-08-25T03:01:29;8.90;;;4.50;;
62030;SDS011;62035;52.094;5.112;2022-08-25T03:03:58;6.70;;;4.15;;
62030;SDS011;62035;52.094;5.112;2022-08-25T03:06:27;7.45;;;4.70;;
62030;SDS011;62035;52.094;5.112;2022-08-25T03:08:55;7.10;;;4.75;;
62030;SDS011;62035;52.094;5.112;2022-08-25T03:11:24;13.90;;;4.15;;
62030;SDS011;62035;52.094;5.112;2022-08-25T03:13:51;9.98;;;4.00;;
62030;SDS011;62035;52.094;5.112;2022-08-25T03:16:20;8.10;;;3.92;;
62030;SDS011;62035;52.094;5.112;2022-08-25T03:18:50;8.65;;;4.43;;
62030;SDS011;62035;52.094;5.112;2022-08-25T03:21:18;5.68;;;3.72;;
62030;SDS011;62035;52.094;5.112;2022-08-25T03:23:46;5.15;;;3.92;;
62030;SDS011;62035;52.094;5.112;2022-08-25T03:26:13;7.30;;;3.83;;
62030;SDS011;62035;52.094;5.112;2022-08-25T03:28:59;7.93;;;3.60;;
62030;SDS011;62035;52.094;5.112;2022-08-25T03:31:30;8.93;;;4.03;;
62030;SDS011;62035;52.094;5.112;2022-08-25T03:34:02;6.47;;;4.03;;
62030;SDS011;62035;52.094;5.112;2022-08-25T03:36:30;8.50;;;4.10;;
62030;SDS011;62035;52.094;5.112;2022-08-25T03:38:57;5.78;;;3.72;;
62030;SDS011;62035;52.094;5.112;2022-08-25T03:41:27;6.50;;;3.88;;
62030;SDS011;62035;52.094;5.112;2022-08-25T03:43:58;6.70;;;3.38;;
62030;SDS011;62035;52.094;5.112;2022-08-25T03:46:28;6.68;;;3.60;;
62030;SDS011;62035;52.094;5.112;2022-08-25T03:48:59;8.50;;;3.80;;
62030;SDS011;62035;52.094;5.112;2022-08-25T03:51:31;14.30;;;3.88;;
62030;SDS011;62035;52.094;5.112;2022-08-25T03:54:04;9.70;;;3.80;;
62030;SDS011;62035;52.094;5.112;2022-08-25T03:56:33;8.48;;;3.60;;
62030;SDS011;62035;52.094;5.112;2022-08-25T03:59:01;5.32;;;3.90;;
62030;SDS011;62035;52.094;5.112;2022-08-25T04:01:30;5.03;;;3.20;;
62030;SDS011;62035;52.094;5.112;2022-08-25T04:03:59;7.57;;;3.25;;
62030;SDS011;62035;52.094;5.112;2022-08-25T04:06:28;7.93;;;3.72;;
62030;SDS011;62035;52.094;5.112;2022-08-25T04:08:56;7.78;;;3.45;;
62030;SDS011;62035;52.094;5.112;2022-08-25T04:11:25;9.27;;;3.90;;
62030;SDS011;62035;52.094;5.112;2022-08-25T04:13:55;14.48;;;3.80;;
62030;SDS011;62035;52.094;5.112;2022-08-25T04:16:28;5.63;;;3.40;;
62030;SDS011;62035;52.094;5.112;2022-08-25T04:19:00;10.23;;;3.35;;
62030;SDS011;62035;52.094;5.112;2022-08-25T04:21:34;6.07;;;3.10;;
62030;SDS011;62035;52.094;5.112;2022-08-25T04:24:02;9.57;;;3.70;;
62030;SDS011;62035;52.094;5.112;2022-08-25T04:26:32;11.85;;;3.55;;
62030;SDS011;62035;52.094;5.112;2022-08-25T04:29:04;6.80;;;3.40;;
62030;SDS011;62035;52.094;5.112;2022-08-25T04:31:34;8.07;;;3.22;;
62030;SDS011;62035;52.094;5.112;2022-08-25T04:34:05;10.13;;;3.30;;
62030;SDS011;62035;52.094;5.112;2022-08-25T04:36:35;4.88;;;3.10;;
62030;SDS011;62035;52.094;5.112;2022-08-25T04:39:03;8.15;;;3.20;;
62030;SDS011;62035;52.094;5.112;2022-08-25T04:41:31;4.20;;;2.78;;
62030;SDS011;62035;52.094;5.112;2022-08-25T04:43:59;6.47;;;3.10;;
62030;SDS011;62035;52.094;5.112;2022-08-25T04:46:28;4.97;;;3.13;;
62030;SDS011;62035;52.094;5.112;2022-08-25T04:48:59;5.65;;;3.17;;
62030;SDS011;62035;52.094;5.112;2022-08-25T04:51:29;7.65;;;3.22;;
62030;SDS011;62035;52.094;5.112;2022-08-25T04:56:32;6.95;;;3.22;;
62030;SDS011;62035;52.094;5.112;2022-08-25T04:59:02;9.55;;;3.63;;
62030;SDS011;62035;52.094;5.112;2022-08-25T05:01:31;6.50;;;2.90;;
62030;SDS011;62035;52.094;5.112;2022-08-25T05:04:01;6.57;;;3.03;;
62030;SDS011;62035;52.094;5.112;2022-08-25T05:06:32;5.00;;;3.28;;
62030;SDS011;62035;52.094;5.112;2022-08-25T05:09:02;6.32;;;3.15;;
62030;SDS011;62035;52.094;5.112;2022-08-25T05:11:30;5.38;;;3.13;;
62030;SDS011;62035;52.094;5.112;2022-08-25T05:13:59;4.78;;;2.97;;
62030;SDS011;62035;52.094;5.112;2022-08-25T05:16:29;6.25;;;2.92;;
62030;SDS011;62035;52.094;5.112;2022-08-25T05:18:57;4.72;;;2.97;;
62030;SDS011;62035;52.094;5.112;2022-08-25T05:21:25;5.95;;;3.03;;
62030;SDS011;62035;52.094;5.112;2022-08-25T05:23:54;6.35;;;2.97;;
62030;SDS011;62035;52.094;5.112;2022-08-25T05:26:25;9.27;;;3.33;;
62030;SDS011;62035;52.094;5.112;2022-08-25T05:28:56;7.60;;;2.97;;
62030;SDS011;62035;52.094;5.112;2022-08-25T05:31:26;5.20;;;3.03;;
62030;SDS011;62035;52.094;5.112;2022-08-25T05:33:54;5.13;;;2.95;;
62030;SDS011;62035;52.094;5.112;2022-08-25T05:36:24;5.18;;;2.80;;
62030;SDS011;62035;52.094;5.112;2022-08-25T05:38:54;6.72;;;3.10;;
62030;SDS011;62035;52.094;5.112;2022-08-25T05:41:25;4.65;;;2.95;;
62030;SDS011;62035;52.094;5.112;2022-08-25T05:43:55;6.43;;;2.92;;
62030;SDS011;62035;52.094;5.112;2022-08-25T05:46:24;6.00;;;3.00;;
62030;SDS011;62035;52.094;5.112;2022-08-25T05:48:52;6.28;;;3.00;;
62030;SDS011;62035;52.094;5.112;2022-08-25T05:51:20;6.50;;;2.47;;
62030;SDS011;62035;52.094;5.112;2022-08-25T05:53:49;9.02;;;3.08;;
62030;SDS011;62035;52.094;5.112;2022-08-25T05:56:17;6.85;;;2.75;;
62030;SDS011;62035;52.094;5.112;2022-08-25T05:58:47;13.35;;;3.13;;
62030;SDS011;62035;52.094;5.112;2022-08-25T06:01:20;7.85;;;3.08;;
62030;SDS011;62035;52.094;5.112;2022-08-25T06:04:08;5.70;;;2.92;;
62030;SDS011;62035;52.094;5.112;2022-08-25T06:06:37;10.20;;;3.65;;
62030;SDS011;62035;52.094;5.112;2022-08-25T06:09:05;8.18;;;3.67;;
62030;SDS011;62035;52.094;5.112;2022-08-25T06:11:34;6.22;;;3.08;;
62030;SDS011;62035;52.094;5.112;2022-08-25T06:14:06;6.93;;;2.97;;
62030;SDS011;62035;52.094;5.112;2022-08-25T06:16:35;5.18;;;3.08;;
62030;SDS011;62035;52.094;5.112;2022-08-25T06:19:03;6.47;;;3.10;;
62030;SDS011;62035;52.094;5.112;2022-08-25T06:21:31;20.77;;;4.05;;
62030;SDS011;62035;52.094;5.112;2022-08-25T06:23:59;8.98;;;2.90;;
62030;SDS011;62035;52.094;5.112;2022-08-25T06:26:26;9.57;;;2.80;;
62030;SDS011;62035;52.094;5.112;2022-08-25T06:28:54;7.00;;;2.67;;
62030;SDS011;62035;52.094;5.112;2022-08-25T06:31:23;9.25;;;2.70;;
62030;SDS011;62035;52.094;5.112;2022-08-25T06:33:50;12.38;;;2.88;;
62030;SDS011;62035;52.094;5.112;2022-08-25T06:36:18;8.68;;;3.17;;
62030;SDS011;62035;52.094;5.112;2022-08-25T06:38:46;8.30;;;2.92;;
62030;SDS011;62035;52.094;5.112;2022-08-25T06:41:14;5.97;;;2.78;;
62030;SDS011;62035;52.094;5.112;2022-08-25T06:43:42;7.10;;;2.85;;
62030;SDS011;62035;52.094;5.112;2022-08-25T06:46:10;10.13;;;2.80;;
62030;SDS011;62035;52.094;5.112;2022-08-25T06:48:41;6.03;;;3.03;;
62030;SDS011;62035;52.094;5.112;2022-08-25T06:51:09;5.50;;;3.05;;
62030;SDS011;62035;52.094;5.112;2022-08-25T06:53:40;8.95;;;2.83;;
62030;SDS011;62035;52.094;5.112;2022-08-25T06:56:09;6.80;;;3.00;;
62030;SDS011;62035;52.094;5.112;2022-08-25T06:58:37;9.35;;;3.58;;
62030;SDS011;62035;52.094;5.112;2022-08-25T07:01:05;8.75;;;3.15;;
62030;SDS011;62035;52.094;5.112;2022-08-25T07:03:34;11.73;;;3.35;;
62030;SDS011;62035;52.094;5.112;2022-08-25T07:06:04;7.10;;;3.20;;
62030;SDS011;62035;52.094;5.112;2022-08-25T07:08:34;14.77;;;3.28;;
62030;SDS011;62035;52.094;5.112;2022-08-25T07:11:03;7.18;;;2.90;;
62030;SDS011;62035;52.094;5.112;2022-08-25T07:13:31;8.60;;;3.00;;
62030;SDS011;62035;52.094;5.112;2022-08-25T07:16:00;7.80;;;2.65;;
62030;SDS011;62035;52.094;5.112;2022-08-25T07:18:28;6.30;;;2.80;;
62030;SDS011;62035;52.094;5.112;2022-08-25T07:20:56;5.80;;;3.03;;
62030;SDS011;62035;52.094;5.112;2022-08-25T07:23:25;20.60;;;3.53;;
62030;SDS011;62035;52.094;5.112;2022-08-25T07:25:53;20.42;;;4.35;;
62030;SDS011;62035;52.094;5.112;2022-08-25T07:28:22;11.73;;;3.38;;
62030;SDS011;62035;52.094;5.112;2022-08-25T07:30:50;21.98;;;3.50;;
62030;SDS011;62035;52.094;5.112;2022-08-25T07:33:17;12.18;;;3.00;;
62030;SDS011;62035;52.094;5.112;2022-08-25T07:35:45;9.98;;;3.55;;
62030;SDS011;62035;52.094;5.112;2022-08-25T07:38:12;7.55;;;3.05;;
62030;SDS011;62035;52.094;5.112;2022-08-25T07:40:41;5.80;;;2.92;;
62030;SDS011;62035;52.094;5.112;2022-08-25T07:43:09;9.40;;;2.88;;
62030;SDS011;62035;52.094;5.112;2022-08-25T07:45:37;9.98;;;3.08;;
62030;SDS011;62035;52.094;5.112;2022-08-25T07:48:06;9.88;;;3.33;;
62030;SDS011;62035;52.094;5.112;2022-08-25T07:50:37;7.43;;;3.20;;
62030;SDS011;62035;52.094;5.112;2022-08-25T07:53:08;9.73;;;3.38;;
62030;SDS011;62035;52.094;5.112;2022-08-25T07:55:37;6.72;;;2.70;;
62030;SDS011;62035;52.094;5.112;2022-08-25T07:58:08;13.65;;;3.05;;
62030;SDS011;62035;52.094;5.112;2022-08-25T08:00:36;7.70;;;2.95;;
62030;SDS011;62035;52.094;5.112;2022-08-25T08:03:07;6.25;;;3.20;;
62030;SDS011;62035;52.094;5.112;2022-08-25T08:05:39;11.05;;;3.22;;
62030;SDS011;62035;52.094;5.112;2022-08-25T08:08:07;3.88;;;2.63;;
62030;SDS011;62035;52.094;5.112;2022-08-25T08:10:37;6.60;;;3.47;;
62030;SDS011;62035;52.094;5.112;2022-08-25T08:13:07;6.05;;;2.47;;
62030;SDS011;62035;52.094;5.112;2022-08-25T08:15:36;13.23;;;3.05;;
62030;SDS011;62035;52.094;5.112;2022-08-25T08:18:03;9.65;;;3.00;;
62030;SDS011;62035;52.094;5.112;2022-08-25T08:20:31;7.25;;;2.80;;
62030;SDS011;62035;52.094;5.112;2022-08-25T08:22:59;6.57;;;2.85;;
62030;SDS011;62035;52.094;5.112;2022-08-25T08:25:26;7.22;;;3.10;;
62030;SDS011;62035;52.094;5.112;2022-08-25T08:27:55;10.63;;;2.95;;
62030;SDS011;62035;52.094;5.112;2022-08-25T08:30:24;9.32;;;2.53;;
62030;SDS011;62035;52.094;5.112;2022-08-25T08:32:52;6.40;;;2.58;;
62030;SDS011;62035;52.094;5.112;2022-08-25T08:35:20;28.52;;;4.30;;
62030;SDS011;62035;52.094;5.112;2022-08-25T08:37:48;8.77;;;3.10;;
62030;SDS011;62035;52.094;5.112;2022-08-25T08:40:17;8.98;;;2.90;;
62030;SDS011;62035;52.094;5.112;2022-08-25T08:42:51;13.43;;;2.67;;
62030;SDS011;62035;52.094;5.112;2022-08-25T08:45:32;8.57;;;2.78;;
62030;SDS011;62035;52.094;5.112;2022-08-25T08:48:09;7.50;;;2.90;;
62030;SDS011;62035;52.094;5.112;2022-08-25T08:51:00;12.75;;;2.83;;
62030;SDS011;62035;52.094;5.112;2022-08-25T08:53:43;7.40;;;2.80;;
62030;SDS011;62035;52.094;5.112;2022-08-25T08:56:19;5.93;;;2.40;;
62030;SDS011;62035;52.094;5.112;2022-08-25T08:58:54;17.40;;;3.10;;
62030;SDS011;62035;52.094;5.112;2022-08-25T09:01:27;6.28;;;2.22;;
62030;SDS011;62035;52.094;5.112;2022-08-25T09:04:02;11.68;;;3.25;;
62030;SDS011;62035;52.094;5.112;2022-08-25T09:06:37;7.82;;;2.42;;
62030;SDS011;62035;52.094;5.112;2022-08-25T09:09:11;6.45;;;3.10;;
62030;SDS011;62035;52.094;5.112;2022-08-25T09:11:53;5.60;;;2.53;;
62030;SDS011;62035;52.094;5.112;2022-08-25T09:14:42;7.13;;;2.60;;
62030;SDS011;62035;52.094;5.112;2022-08-25T09:17:35;10.35;;;2.70;;
62030;SDS011;62035;52.094;5.112;2022-08-25T09:20:35;9.20;;;3.22;;
62030;SDS011;62035;52.094;5.112;2022-08-25T09:23:20;21.50;;;3.17;;
62030;SDS011;62035;52.094;5.112;2022-08-25T09:26:06;12.98;;;2.72;;
62030;SDS011;62035;52.094;5.112;2022-08-25T09:28:57;7.75;;;2.50;;
62030;SDS011;62035;52.094;5.112;2022-08-25T09:31:30;9.02;;;2.90;;
62030;SDS011;62035;52.094;5.112;2022-08-25T09:34:05;9.40;;;2.65;;
62030;SDS011;62035;52.094;5.112;2022-08-25T09:36:38;9.10;;;2.90;;
62030;SDS011;62035;52.094;5.112;2022-08-25T09:39:06;9.20;;;2.83;;
62030;SDS011;62035;52.094;5.112;2022-08-25T09:41:34;10.55;;;2.70;;
62030;SDS011;62035;52.094;5.112;2022-08-25T09:44:15;5.30;;;3.20;;
62030;SDS011;62035;52.094;5.112;2022-08-25T09:46:53;8.95;;;2.83;;
62030;SDS011;62035;52.094;5.112;2022-08-25T09:49:36;5.55;;;2.63;;
62030;SDS011;62035;52.094;5.112;2022-08-25T09:52:15;5.43;;;2.40;;
62030;SDS011;62035;52.094;5.112;2022-08-25T09:54:59;5.50;;;2.60;;
62030;SDS011;62035;52.094;5.112;2022-08-25T09:57:49;7.13;;;2.80;;
62030;SDS011;62035;52.094;5.112;2022-08-25T10:00:22;12.57;;;3.13;;
62030;SDS011;62035;52.094;5.112;2022-08-25T10:03:03;5.38;;;2.70;;
62030;SDS011;62035;52.094;5.112;2022-08-25T10:05:40;10.43;;;2.75;;
62030;SDS011;62035;52.094;5.112;2022-08-25T10:08:28;6.07;;;2.80;;
62030;SDS011;62035;52.094;5.112;2022-08-25T10:11:01;7.72;;;2.50;;
62030;SDS011;62035;52.094;5.112;2022-08-25T10:13:39;7.30;;;2.78;;
62030;SDS011;62035;52.094;5.112;2022-08-25T10:16:10;8.90;;;2.80;;
62030;SDS011;62035;52.094;5.112;2022-08-25T10:18:59;6.32;;;2.70;;
62030;SDS011;62035;52.094;5.112;2022-08-25T10:21:36;9.05;;;3.85;;
62030;SDS011;62035;52.094;5.112;2022-08-25T10:24:07;10.52;;;2.85;;
62030;SDS011;62035;52.094;5.112;2022-08-25T10:26:40;6.80;;;2.85;;
62030;SDS011;62035;52.094;5.112;2022-08-25T10:29:25;4.82;;;2.80;;
62030;SDS011;62035;52.094;5.112;2022-08-25T10:32:17;9.38;;;2.42;;
62030;SDS011;62035;52.094;5.112;2022-08-25T10:34:58;8.73;;;2.60;;
62030;SDS011;62035;52.094;5.112;2022-08-25T10:37:41;8.77;;;2.67;;
62030;SDS011;62035;52.094;5.112;2022-08-25T10:40:30;7.30;;;2.63;;
62030;SDS011;62035;52.094;5.112;2022-08-25T10:43:15;7.85;;;2.20;;
62030;SDS011;62035;52.094;5.112;2022-08-25T10:46:00;5.82;;;2.45;;
62030;SDS011;62035;52.094;5.112;2022-08-25T10:48:49;9.45;;;2.47;;
62030;SDS011;62035;52.094;5.112;2022-08-25T10:51:37;6.72;;;2.30;;
62030;SDS011;62035;52.094;5.112;2022-08-25T10:54:24;4.85;;;2.25;;
62030;SDS011;62035;52.094;5.112;2022-08-25T10:57:10;8.82;;;2.42;;
62030;SDS011;62035;52.094;5.112;2022-08-25T10:59:56;4.28;;;1.90;;
62030;SDS011;62035;52.094;5.112;2022-08-25T11:02:36;4.20;;;2.22;;
62030;SDS011;62035;52.094;5.112;2022-08-25T11:05:32;8.52;;;2.50;;
62030;SDS011;62035;52.094;5.112;2022-08-25T11:08:07;9.32;;;2.00;;
62030;SDS011;62035;52.094;5.112;2022-08-25T11:10:45;7.13;;;1.73;;
62030;SDS011;62035;52.094;5.112;2022-08-25T11:13:21;7.35;;;2.25;;
62030;SDS011;62035;52.094;5.112;2022-08-25T11:16:00;5.63;;;2.10;;
62030;SDS011;62035;52.094;5.112;2022-08-25T11:18:36;4.47;;;2.10;;
62030;SDS011;62035;52.094;5.112;2022-08-25T11:21:18;4.38;;;2.30;;
62030;SDS011;62035;52.094;5.112;2022-08-25T11:23:57;10.27;;;2.40;;
62030;SDS011;62035;52.094;5.112;2022-08-25T11:26:36;6.75;;;2.10;;
62030;SDS011;62035;52.094;5.112;2022-08-25T11:29:10;4.25;;;2.22;;
62030;SDS011;62035;52.094;5.112;2022-08-25T11:31:44;4.47;;;2.20;;
62030;SDS011;62035;52.094;5.112;2022-08-25T11:34:16;6.38;;;2.15;;
62030;SDS011;62035;52.094;5.112;2022-08-25T11:36:48;5.32;;;2.22;;
62030;SDS011;62035;52.094;5.112;2022-08-25T11:39:25;6.82;;;2.10;;
62030;SDS011;62035;52.094;5.112;2022-08-25T11:44:53;5.30;;;2.33;;
62030;SDS011;62035;52.094;5.112;2022-08-25T11:47:40;12.52;;;2.30;;
62030;SDS011;62035;52.094;5.112;2022-08-25T11:50:36;4.32;;;1.98;;
62030;SDS011;62035;52.094;5.112;2022-08-25T11:53:24;7.45;;;2.30;;
62030;SDS011;62035;52.094;5.112;2022-08-25T11:55:54;10.20;;;2.30;;
62030;SDS011;62035;52.094;5.112;2022-08-25T11:58:33;4.85;;;2.53;;
62030;SDS011;62035;52.094;5.112;2022-08-25T12:01:09;5.53;;;2.20;;
62030;SDS011;62035;52.094;5.112;2022-08-25T12:04:30;5.90;;;2.40;;
62030;SDS011;62035;52.094;5.112;2022-08-25T12:07:15;6.28;;;2.53;;
62030;SDS011;62035;52.094;5.112;2022-08-25T12:10:08;8.32;;;2.20;;
62030;SDS011;62035;52.094;5.112;2022-08-25T12:12:54;9.13;;;1.95;;
62030;SDS011;62035;52.094;5.112;2022-08-25T12:15:31;7.10;;;2.20;;
62030;SDS011;62035;52.094;5.112;2022-08-25T12:18:37;6.72;;;2.00;;
62030;SDS011;62035;52.094;5.112;2022-08-25T12:21:28;6.13;;;2.03;;
62030;SDS011;62035;52.094;5.112;2022-08-25T12:24:09;4.80;;;2.22;;
62030;SDS011;62035;52.094;5.112;2022-08-25T12:26:42;5.50;;;2.17;;
62030;SDS011;62035;52.094;5.112;2022-08-25T12:29:24;12.52;;;3.20;;
62030;SDS011;62035;52.094;5.112;2022-08-25T12:35:16;7.43;;;3.17;;
62030;SDS011;62035;52.094;5.112;2022-08-25T12:38:02;4.35;;;2.30;;
62030;SDS011;62035;52.094;5.112;2022-08-25T12:40:37;6.15;;;2.30;;
62030;SDS011;62035;52.094;5.112;2022-08-25T12:43:23;6.10;;;2.40;;
62030;SDS011;62035;52.094;5.112;2022-08-25T12:49:09;13.15;;;2.55;;
62030;SDS011;62035;52.094;5.112;2022-08-25T12:51:57;7.90;;;2.50;;
62030;SDS011;62035;52.094;5.112;2022-08-25T12:54:36;3.55;;;2.20;;
62030;SDS011;62035;52.094;5.112;2022-08-25T12:57:21;7.75;;;2.47;;
62030;SDS011;62035;52.094;5.112;2022-08-25T13:00:04;12.90;;;2.77;;
62030;SDS011;62035;52.094;5.112;2022-08-25T13:02:51;7.25;;;3.17;;
62030;SDS011;62035;52.094;5.112;2022-08-25T13:06:06;8.25;;;2.28;;
62030;SDS011;62035;52.094;5.112;2022-08-25T13:08:51;4.63;;;2.35;;
62030;SDS011;62035;52.094;5.112;2022-08-25T13:11:45;6.25;;;2.47;;
62030;SDS011;62035;52.094;5.112;2022-08-25T13:14:21;6.45;;;2.65;;
62030;SDS011;62035;52.094;5.112;2022-08-25T13:17:02;6.82;;;2.70;;
62030;SDS011;62035;52.094;5.112;2022-08-25T13:19:30;9.40;;;2.70;;
62030;SDS011;62035;52.094;5.112;2022-08-25T13:21:59;7.05;;;2.25;;
62030;SDS011;62035;52.094;5.112;2022-08-25T13:24:39;12.05;;;2.35;;
62030;SDS011;62035;52.094;5.112;2022-08-25T13:27:17;6.65;;;2.00;;
62030;SDS011;62035;52.094;5.112;2022-08-25T13:29:50;7.78;;;2.20;;
62030;SDS011;62035;52.094;5.112;2022-08-25T13:32:25;3.22;;;2.15;;
62030;SDS011;62035;52.094;5.112;2022-08-25T13:35:06;8.68;;;2.20;;
62030;SDS011;62035;52.094;5.112;2022-08-25T13:37:41;10.02;;;2.50;;
62030;SDS011;62035;52.094;5.112;2022-08-25T13:40:10;4.68;;;2.30;;
62030;SDS011;62035;52.094;5.112;2022-08-25T13:42:41;8.73;;;2.47;;
62030;SDS011;62035;52.094;5.112;2022-08-25T13:45:12;8.93;;;2.33;;
62030;SDS011;62035;52.094;5.112;2022-08-25T13:47:44;4.32;;;2.20;;
62030;SDS011;62035;52.094;5.112;2022-08-25T13:50:14;8.43;;;2.55;;
62030;SDS011;62035;52.094;5.112;2022-08-25T13:52:56;6.70;;;2.17;;
62030;SDS011;62035;52.094;5.112;2022-08-25T13:55:30;5.05;;;2.22;;
62030;SDS011;62035;52.094;5.112;2022-08-25T13:58:02;6.90;;;2.65;;
62030;SDS011;62035;52.094;5.112;2022-08-25T14:00:39;5.82;;;1.95;;
62030;SDS011;62035;52.094;5.112;2022-08-25T14:06:03;14.00;;;2.20;;
62030;SDS011;62035;52.094;5.112;2022-08-25T14:08:36;6.93;;;2.30;;
62030;SDS011;62035;52.094;5.112;2022-08-25T14:11:09;4.35;;;2.05;;
62030;SDS011;62035;52.094;5.112;2022-08-25T14:13:40;5.53;;;2.20;;
62030;SDS011;62035;52.094;5.112;2022-08-25T14:16:11;4.50;;;2.20;;
62030;SDS011;62035;52.094;5.112;2022-08-25T14:18:46;6.50;;;2.20;;
62030;SDS011;62035;52.094;5.112;2022-08-25T14:21:18;8.55;;;2.53;;
62030;SDS011;62035;52.094;5.112;2022-08-25T14:23:53;12.13;;;2.70;;
62030;SDS011;62035;52.094;5.112;2022-08-25T14:26:22;7.75;;;2.50;;
62030;SDS011;62035;52.094;5.112;2022-08-25T14:28:51;5.78;;;2.30;;
62030;SDS011;62035;52.094;5.112;2022-08-25T14:31:20;5.68;;;2.20;;
62030;SDS011;62035;52.094;5.112;2022-08-25T14:33:54;5.45;;;2.03;;
62030;SDS011;62035;52.094;5.112;2022-08-25T14:36:27;4.80;;;2.30;;
62030;SDS011;62035;52.094;5.112;2022-08-25T14:38:58;7.47;;;2.47;;
62030;SDS011;62035;52.094;5.112;2022-08-25T14:41:30;7.85;;;2.28;;
62030;SDS011;62035;52.094;5.112;2022-08-25T14:46:30;7.97;;;2.63;;
62030;SDS011;62035;52.094;5.112;2022-08-25T14:49:02;8.07;;;2.80;;
62030;SDS011;62035;52.094;5.112;2022-08-25T14:51:36;8.52;;;2.50;;
62030;SDS011;62035;52.094;5.112;2022-08-25T14:54:10;4.88;;;2.00;;
62030;SDS011;62035;52.094;5.112;2022-08-25T14:56:43;6.05;;;2.50;;
62030;SDS011;62035;52.094;5.112;2022-08-25T14:59:13;4.78;;;2.25;;
62030;SDS011;62035;52.094;5.112;2022-08-25T15:01:41;6.40;;;2.40;;
62030;SDS011;62035;52.094;5.112;2022-08-25T15:04:09;4.45;;;2.28;;
62030;SDS011;62035;52.094;5.112;2022-08-25T15:06:42;7.97;;;2.40;;
62030;SDS011;62035;52.094;5.112;2022-08-25T15:09:14;5.20;;;2.83;;
62030;SDS011;62035;52.094;5.112;2022-08-25T15:11:43;9.57;;;2.50;;
62030;SDS011;62035;52.094;5.112;2022-08-25T15:14:14;7.97;;;2.92;;
62030;SDS011;62035;52.094;5.112;2022-08-25T15:16:44;9.35;;;2.40;;
62030;SDS011;62035;52.094;5.112;2022-08-25T15:19:16;6.20;;;2.40;;
62030;SDS011;62035;52.094;5.112;2022-08-25T15:21:46;6.95;;;2.30;;
62030;SDS011;62035;52.094;5.112;2022-08-25T15:24:16;7.07;;;2.40;;
62030;SDS011;62035;52.094;5.112;2022-08-25T15:26:47;5.43;;;2.80;;
62030;SDS011;62035;52.094;5.112;2022-08-25T15:29:19;4.55;;;2.40;;
62030;SDS011;62035;52.094;5.112;2022-08-25T15:31:48;3.83;;;2.20;;
62030;SDS011;62035;52.094;5.112;2022-08-25T15:34:15;6.68;;;2.97;;
62030;SDS011;62035;52.094;5.112;2022-08-25T15:36:44;9.35;;;3.30;;
62030;SDS011;62035;52.094;5.112;2022-08-25T15:39:12;8.10;;;3.90;;